Terminal Aerodrome Forecast
Issued by NWS La Crosse, WI

Home | Current Version | Previous Version | Text Only | Print | Product List | Glossary On
Versions: 1 2 3 4 5 6 7 8 9 10 11 12 13 14 15 16 17 18 19 20 21 22 23 24 25 26 27 28
000
FTUS43 KARX 192330
TAFLSE
TAF
KLSE 192330Z 2000/2024 18016G24KT P6SM SCT250
     FM200300 20014KT P6SM VCTS SCT035CB BKN130
     FM200800 20012KT P6SM SCT035
     FM201100 23011KT P6SM BKN120
     FM201500 26011KT P6SM BKN150
     FM201800 30011KT P6SM SCT250=

USA.gov is the U.S. government's official web portal to all federal, state and local government web resources and services.